Time;durP1;ratioP1;P1;durP2;ratioP2;P2;SDS_P1;SDS_P2;PMS_P1;PMS_P2;Temp;Humidity;BMP_temperature;BMP_pressure;BME280_temperature;BME280_humidity;BME280_pressure;Samples;Min_cycle;Max_cycle;Signal;HPM_P1;HPM_P2
2021/06/28 00:01:11;;;;;;;1.70;1.60;;;;;;;;;;10224040;28;20034;-66
2021/06/28 00:06:09;;;;;;;2.67;1.67;;;;;;;;;;10223291;28;20118;-66
2021/06/28 00:11:07;;;;;;;1.93;1.70;;;;;;;;;;10222231;28;20062;-66
2021/06/28 00:16:04;;;;;;;;;;;;;;;;;;10222295;28;20034;-66
2021/06/28 00:21:02;;;;;;;2.28;1.70;;;;;;;;;;10221518;28;20377;-66
2021/06/28 00:26:00;;;;;;;2.05;1.70;;;;;;;;;;10223116;28;20401;-66
2021/06/28 00:30:58;;;;;;;2.00;1.50;;;;;;;;;;10221351;28;20054;-66
2021/06/28 00:35:56;;;;;;;1.90;1.60;;;;;;;;;;10221931;28;20034;-66
2021/06/28 00:40:54;;;;;;;1.63;1.30;;;;;;;;;;10221989;28;20093;-66
2021/06/28 00:45:52;;;;;;;2.37;1.93;;;;;;;;;;10221448;28;20042;-66
2021/06/28 00:50:52;;;;;;;2.47;1.80;;;;;;;;;;10222003;28;20376;-66
2021/06/28 00:55:50;;;;;;;2.40;1.95;;;;;;;;;;10221035;28;20504;-66
2021/06/28 01:00:47;;;;;;;2.38;1.98;;;;;;;;;;10220213;28;20117;-66
2021/06/28 01:05:45;;;;;;;2.80;1.87;;;;;;;;;;10221610;28;20126;-66
2021/06/28 01:10:42;;;;;;;2.70;1.43;;;;;;;;;;10220040;28;20516;-66
2021/06/28 01:15:40;;;;;;;2.10;1.70;;;;;;;;;;10221649;28;20073;-67
2021/06/28 01:20:37;;;;;;;2.17;1.98;;;;;;;;;;10221172;28;20553;-66
2021/06/28 01:25:35;;;;;;;2.67;1.90;;;;;;;;;;10236464;28;20049;-66
2021/06/28 01:30:33;;;;;;;2.70;1.93;;;;;;;;;;10220923;28;20042;-66
2021/06/28 01:35:30;;;;;;;1.93;1.77;;;;;;;;;;10221383;28;20061;-66
2021/06/28 01:40:28;;;;;;;1.85;1.75;;;;;;;;;;10219450;28;20038;-66
2021/06/28 01:45:25;;;;;;;1.70;1.60;;;;;;;;;;10237013;28;20041;-66
2021/06/28 01:50:24;;;;;;;2.00;1.80;;;;;;;;;;10267714;28;20404;-66
2021/06/28 01:55:21;;;;;;;2.35;1.83;;;;;;;;;;10284485;28;20124;-66
2021/06/28 02:00:24;;;;;;;1.90;1.80;;;;;;;;;;10268894;28;20061;-66
2021/06/28 02:05:22;;;;;;;2.00;1.90;;;;;;;;;;10283527;28;20654;-66
2021/06/28 02:10:20;;;;;;;1.80;1.60;;;;;;;;;;10267982;28;20393;-66
2021/06/28 02:15:18;;;;;;;2.55;2.17;;;;;;;;;;10268901;28;20113;-66
2021/06/28 02:20:15;;;;;;;;;;;;;;;;;;10267946;28;20519;-66
2021/06/28 02:25:13;;;;;;;3.37;2.20;;;;;;;;;;10267968;28;19929;-66
2021/06/28 02:30:12;;;;;;;2.63;2.33;;;;;;;;;;10266703;28;20034;-66
2021/06/28 02:35:11;;;;;;;2.72;2.05;;;;;;;;;;10268120;28;20029;-66
2021/06/28 02:40:10;;;;;;;3.03;2.55;;;;;;;;;;10282363;28;20040;-66
2021/06/28 02:45:08;;;;;;;4.85;2.30;;;;;;;;;;10267606;28;20037;-66
2021/06/28 02:50:10;;;;;;;2.88;2.17;;;;;;;;;;10265517;28;20567;-66
2021/06/28 02:55:08;;;;;;;4.40;2.90;;;;;;;;;;10267942;28;20049;-67
2021/06/28 03:00:07;;;;;;;2.78;2.40;;;;;;;;;;10268899;28;20503;-65
2021/06/28 03:05:06;;;;;;;2.58;2.38;;;;;;;;;;10267116;28;20108;-66
2021/06/28 03:10:04;;;;;;;2.72;2.50;;;;;;;;;;10267043;28;20034;-66
2021/06/28 03:15:07;;;;;;;2.28;2.17;;;;;;;;;;10267873;28;20083;-66
2021/06/28 03:20:05;;;;;;;2.70;2.47;;;;;;;;;;10267931;28;20136;-66
2021/06/28 03:25:03;;;;;;;;;;;;;;;;;;10266963;28;20038;-66
2021/06/28 03:30:00;;;;;;;2.73;2.17;;;;;;;;;;10267117;28;19948;-66
2021/06/28 03:34:58;;;;;;;2.50;2.03;;;;;;;;;;10266667;28;20037;-66
2021/06/28 03:39:55;;;;;;;2.73;2.23;;;;;;;;;;10266956;28;20112;-66
2021/06/28 03:44:53;;;;;;;2.53;2.33;;;;;;;;;;10266663;28;20109;-66
2021/06/28 03:49:50;;;;;;;3.70;2.37;;;;;;;;;;10267112;28;20026;-66
2021/06/28 03:54:48;;;;;;;2.37;2.23;;;;;;;;;;10265687;28;20052;-65
2021/06/28 03:59:45;;;;;;;3.90;2.20;;;;;;;;;;10266229;28;20045;-66
2021/06/28 04:04:48;;;;;;;4.37;2.43;;;;;;;;;;10265176;28;20053;-65
2021/06/28 04:09:45;;;;;;;4.63;2.20;;;;;;;;;;10266807;28;20149;-66
2021/06/28 04:14:43;;;;;;;4.23;2.77;;;;;;;;;;10263785;28;20062;-65
2021/06/28 04:19:40;;;;;;;2.53;2.30;;;;;;;;;;10264355;28;20038;-66
2021/06/28 04:24:37;;;;;;;5.13;2.80;;;;;;;;;;10259406;28;20452;-66
2021/06/28 04:29:36;;;;;;;4.43;2.87;;;;;;;;;;10260926;28;20365;-66
2021/06/28 04:34:33;;;;;;;3.15;2.40;;;;;;;;;;10264425;28;20372;-66
2021/06/28 04:39:30;;;;;;;4.63;3.43;;;;;;;;;;10260951;28;20033;-66
2021/06/28 04:44:28;;;;;;;4.77;2.70;;;;;;;;;;10263540;28;20042;-66
2021/06/28 04:49:25;;;;;;;5.77;3.77;;;;;;;;;;10262203;28;20056;-66
2021/06/28 04:54:23;;;;;;;3.90;3.43;;;;;;;;;;10260523;28;20710;-66
2021/06/28 04:59:20;;;;;;;4.00;2.90;;;;;;;;;;10261832;28;20046;-67
2021/06/28 05:04:18;;;;;;;9.60;5.83;;;;;;;;;;10263995;28;20049;-66
2021/06/28 05:14:14;;;;;;;5.38;3.70;;;;;;;;;;10089321;28;20689;-65
2021/06/28 05:19:12;;;;;;;5.27;4.43;;;;;;;;;;10120962;28;20173;-65
2021/06/28 05:24:09;;;;;;;8.93;6.40;;;;;;;;;;10119322;28;20402;-65
2021/06/28 05:29:06;;;;;;;9.77;7.07;;;;;;;;;;10125732;28;20047;-65
2021/06/28 05:34:04;;;;;;;13.43;8.90;;;;;;;;;;10119083;28;20654;-65
2021/06/28 05:39:03;;;;;;;8.10;6.57;;;;;;;;;;10125344;28;20037;-64
2021/06/28 05:44:00;;;;;;;7.15;5.78;;;;;;;;;;10209552;22;20331;-64
2021/06/28 05:48:57;;;;;;;6.50;5.90;;;;;;;;;;10239815;28;20151;-66
2021/06/28 05:53:55;;;;;;;7.87;5.73;;;;;;;;;;10230598;28;20152;-67
2021/06/28 05:58:52;;;;;;;11.43;8.57;;;;;;;;;;10308320;22;20059;-65
2021/06/28 06:03:50;;;;;;;5.90;5.30;;;;;;;;;;10349260;28;20033;-65
2021/06/28 06:08:47;;;;;;;5.70;4.30;;;;;;;;;;10350196;28;20087;-65
2021/06/28 06:13:45;;;;;;;11.13;9.13;;;;;;;;;;10353584;28;20523;-65
2021/06/28 06:18:43;;;;;;;5.90;4.07;;;;;;;;;;10346718;28;20333;-65
2021/06/28 06:23:40;;;;;;;5.28;4.25;;;;;;;;;;10347836;28;20040;-65
2021/06/28 06:28:38;;;;;;;10.47;7.57;;;;;;;;;;10346509;28;20048;-66
2021/06/28 06:33:35;;;;;;;8.90;8.00;;;;;;;;;;10342309;28;20445;-65
2021/06/28 06:38:32;;;;;;;;;;;;;;;;;;10341748;28;20536;-66
2021/06/28 06:43:30;;;;;;;7.75;6.97;;;;;;;;;;10344011;28;19920;-66
2021/06/28 06:48:27;;;;;;;;;;;;;;;;;;10336406;28;20051;-66
2021/06/28 06:53:25;;;;;;;6.65;4.70;;;;;;;;;;10342955;28;19924;-66
2021/06/28 06:58:22;;;;;;;6.88;5.80;;;;;;;;;;10331838;28;20526;-66
2021/06/28 07:03:20;;;;;;;;;;;;;;;;;;10336486;28;20668;-66
2021/06/28 07:08:17;;;;;;;9.25;5.93;;;;;;;;;;10335992;28;20042;-66
2021/06/28 07:13:15;;;;;;;7.32;6.57;;;;;;;;;;10355322;28;20037;-66
2021/06/28 07:18:12;;;;;;;5.30;4.67;;;;;;;;;;10345854;28;20060;-66
2021/06/28 07:23:10;;;;;;;8.07;6.50;;;;;;;;;;10334132;28;20272;-67
2021/06/28 07:28:09;;;;;;;6.70;5.43;;;;;;;;;;10338346;28;20472;-67
2021/06/28 07:33:06;;;;;;;9.45;4.80;;;;;;;;;;10323148;28;20066;-67
2021/06/28 07:38:04;;;;;;;5.20;4.22;;;;;;;;;;10327229;28;20041;-67
2021/06/28 07:43:01;;;;;;;6.05;4.88;;;;;;;;;;10344025;28;20047;-67
2021/06/28 07:47:59;;;;;;;7.03;5.30;;;;;;;;;;10327424;28;20037;-67
2021/06/28 07:52:56;;;;;;;6.78;5.32;;;;;;;;;;10334024;28;20763;-67
2021/06/28 07:57:54;;;;;;;4.60;4.03;;;;;;;;;;10327290;28;20536;-67
2021/06/28 08:02:51;;;;;;;5.80;5.10;;;;;;;;;;10339458;28;20292;-67
2021/06/28 08:07:49;;;;;;;5.80;4.67;;;;;;;;;;10334715;28;20426;-68
2021/06/28 08:12:48;;;;;;;7.20;5.27;;;;;;;;;;10336554;28;20043;-68
2021/06/28 08:17:50;;;;;;;4.07;3.72;;;;;;;;;;10336258;28;20414;-67
2021/06/28 08:22:48;;;;;;;4.40;3.83;;;;;;;;;;10331259;28;20040;-67
2021/06/28 08:27:46;;;;;;;5.53;3.63;;;;;;;;;;10331216;28;20485;-68
2021/06/28 08:32:43;;;;;;;5.07;4.57;;;;;;;;;;10341433;28;20044;-68
2021/06/28 08:37:41;;;;;;;4.72;4.28;;;;;;;;;;10346375;28;20051;-68
2021/06/28 08:42:39;;;;;;;5.20;3.63;;;;;;;;;;10335666;28;20032;-67
2021/06/28 08:47:37;;;;;;;4.55;3.75;;;;;;;;;;10330873;28;20808;-68
2021/06/28 08:52:37;;;;;;;5.88;4.78;;;;;;;;;;10332487;28;20387;-68
2021/06/28 08:57:35;;;;;;;4.95;3.60;;;;;;;;;;10332627;28;20049;-68
2021/06/28 09:02:33;;;;;;;6.43;4.40;;;;;;;;;;10340004;28;20044;-68
2021/06/28 09:07:30;;;;;;;6.20;3.37;;;;;;;;;;10330447;28;20260;-68
2021/06/28 09:12:27;;;;;;;4.10;3.70;;;;;;;;;;10333149;28;20276;-68
2021/06/28 09:17:32;;;;;;;4.95;3.33;;;;;;;;;;10317777;28;20316;-69
2021/06/28 09:22:30;;;;;;;4.40;4.00;;;;;;;;;;10340726;28;20033;-68
2021/06/28 09:27:30;;;;;;;5.07;2.93;;;;;;;;;;10340614;28;20052;-69
2021/06/28 09:32:28;;;;;;;4.85;4.28;;;;;;;;;;10340055;28;20068;-69
2021/06/28 09:37:26;;;;;;;4.40;4.00;;;;;;;;;;10328788;28;20040;-69
2021/06/28 09:42:25;;;;;;;6.32;3.28;;;;;;;;;;10329628;28;20561;-69
2021/06/28 09:47:27;;;;;;;4.88;3.03;;;;;;;;;;10333928;28;20055;-70
2021/06/28 09:52:31;;;;;;;3.53;3.22;;;;;;;;;;10336420;28;20349;-70
2021/06/28 09:57:28;;;;;;;3.38;3.08;;;;;;;;;;10327283;28;20056;-70
2021/06/28 10:02:28;;;;;;;5.63;3.83;;;;;;;;;;10336920;28;20079;-70
2021/06/28 10:07:27;;;;;;;4.22;3.13;;;;;;;;;;10337176;28;20284;-70
2021/06/28 10:12:25;;;;;;;6.07;3.63;;;;;;;;;;10345031;28;20037;-70
2021/06/28 10:17:23;;;;;;;3.80;3.33;;;;;;;;;;10346816;28;20033;-70
2021/06/28 10:22:20;;;;;;;3.65;3.33;;;;;;;;;;10348218;28;20047;-70
2021/06/28 10:27:18;;;;;;;3.73;3.43;;;;;;;;;;10341369;28;20039;-70
2021/06/28 10:32:18;;;;;;;4.40;2.80;;;;;;;;;;10342725;28;20127;-70
2021/06/28 10:37:29;;;;;;;3.50;3.20;;;;;;;;;;10346379;28;20403;-71
2021/06/28 10:42:31;;;;;;;3.92;2.92;;;;;;;;;;10339400;28;20048;-71
2021/06/28 10:47:30;;;;;;;5.43;4.93;;;;;;;;;;10345786;28;20447;-70
2021/06/28 10:52:34;;;;;;;6.20;4.03;;;;;;;;;;10329125;28;20453;-71
2021/06/28 10:57:41;;;;;;;6.88;3.63;;;;;;;;;;10345822;28;20127;-70
2021/06/28 11:02:39;;;;;;;7.18;4.38;;;;;;;;;;10341605;28;20036;-70
2021/06/28 11:07:42;;;;;;;6.82;4.10;;;;;;;;;;10326762;28;20044;-71
2021/06/28 11:12:40;;;;;;;5.07;4.00;;;;;;;;;;10339515;28;20094;-70
2021/06/28 11:17:43;;;;;;;6.85;3.25;;;;;;;;;;10341747;28;20349;-71
2021/06/28 11:22:44;;;;;;;4.53;3.42;;;;;;;;;;10329312;28;20101;-71
2021/06/28 11:27:43;;;;;;;6.10;3.25;;;;;;;;;;10335790;28;20759;-70
2021/06/28 11:33:00;;;;;;;6.28;3.35;;;;;;;;;;10337270;28;20437;-71
2021/06/28 11:38:33;;;;;;;3.40;3.05;;;;;;;;;;10342299;28;20290;-71
2021/06/28 11:43:44;;;;;;;3.28;2.90;;;;;;;;;;10245741;28;20067;-70
2021/06/28 11:48:49;;;;;;;3.45;2.70;;;;;;;;;;10318986;28;20088;-71
2021/06/28 11:54:03;;;;;;;3.65;2.75;;;;;;;;;;10337202;28;20048;-70
2021/06/28 11:59:02;;;;;;;3.88;2.90;;;;;;;;;;10338373;28;20045;-70
2021/06/28 12:04:00;;;;;;;3.72;2.65;;;;;;;;;;10337329;28;20037;-70
2021/06/28 12:09:04;;;;;;;2.95;2.58;;;;;;;;;;10331386;28;20041;-70
2021/06/28 12:14:01;;;;;;;2.67;2.47;;;;;;;;;;10336048;28;20037;-70
2021/06/28 12:18:59;;;;;;;2.50;2.30;;;;;;;;;;10333790;28;20222;-70
2021/06/28 12:24:01;;;;;;;3.28;2.90;;;;;;;;;;10331933;28;20075;-70
2021/06/28 12:29:18;;;;;;;2.72;2.53;;;;;;;;;;10353339;28;20047;-70
2021/06/28 12:34:19;;;;;;;2.67;2.47;;;;;;;;;;10326245;28;20043;-70
2021/06/28 12:39:26;;;;;;;2.72;2.45;;;;;;;;;;10357920;22;20082;-66
2021/06/28 12:44:24;;;;;;;4.60;2.78;;;;;;;;;;10339318;28;20060;-67
2021/06/28 12:49:22;;;;;;;2.45;2.30;;;;;;;;;;10303667;28;20032;-68
2021/06/28 12:54:37;;;;;;;3.13;2.77;;;;;;;;;;10312939;28;20040;-67
2021/06/28 12:59:37;;;;;;;3.00;2.75;;;;;;;;;;10317270;28;20810;-67
2021/06/28 13:04:34;;;;;;;2.90;2.70;;;;;;;;;;10316423;28;20072;-69
2021/06/28 13:09:33;;;;;;;5.33;3.53;;;;;;;;;;10313678;28;20893;-68
2021/06/28 13:14:32;;;;;;;2.80;2.60;;;;;;;;;;10311747;28;20036;-68
2021/06/28 13:19:31;;;;;;;3.00;2.80;;;;;;;;;;10307357;28;20026;-68
2021/06/28 13:24:29;;;;;;;3.20;2.80;;;;;;;;;;10297334;28;20761;-67
2021/06/28 13:29:33;;;;;;;3.88;3.58;;;;;;;;;;10308860;28;20128;-69
2021/06/28 13:34:36;;;;;;;3.35;2.85;;;;;;;;;;10316624;28;20029;-67
2021/06/28 13:39:38;;;;;;;2.92;2.70;;;;;;;;;;10305249;28;20041;-68
2021/06/28 13:44:36;;;;;;;3.20;3.00;;;;;;;;;;10313450;28;20033;-68
2021/06/28 13:49:37;;;;;;;3.30;3.10;;;;;;;;;;10315777;28;20030;-71
2021/06/28 13:54:36;;;;;;;3.10;2.90;;;;;;;;;;10309940;28;20275;-70
2021/06/28 13:59:33;;;;;;;2.97;2.78;;;;;;;;;;10311031;28;20553;-68
2021/06/28 14:04:31;;;;;;;3.17;2.97;;;;;;;;;;10315371;28;20034;-68
2021/06/28 14:09:28;;;;;;;3.13;2.93;;;;;;;;;;10314452;28;20048;-71
2021/06/28 14:14:25;;;;;;;3.13;2.87;;;;;;;;;;10304626;28;20044;-70
2021/06/28 14:19:23;;;;;;;3.25;3.05;;;;;;;;;;10309652;28;20044;-71
2021/06/28 14:24:20;;;;;;;3.17;2.88;;;;;;;;;;10305825;28;20021;-68
2021/06/28 14:29:18;;;;;;;3.10;2.90;;;;;;;;;;10315398;28;20357;-66
2021/06/28 14:34:15;;;;;;;3.23;3.03;;;;;;;;;;10312363;28;20630;-72
2021/06/28 14:39:13;;;;;;;3.80;3.50;;;;;;;;;;10310380;28;20549;-69
2021/06/28 14:44:10;;;;;;;3.00;2.80;;;;;;;;;;10308049;28;20032;-69
2021/06/28 14:49:09;;;;;;;3.60;3.30;;;;;;;;;;10315689;28;20045;-69
2021/06/28 14:54:07;;;;;;;3.30;3.10;;;;;;;;;;10321265;28;20029;-70
2021/06/28 14:59:04;;;;;;;3.27;2.97;;;;;;;;;;10319279;28;20362;-70
2021/06/28 15:04:02;;;;;;;3.23;3.03;;;;;;;;;;10305631;28;20128;-69
2021/06/28 15:09:00;;;;;;;3.25;3.05;;;;;;;;;;10325369;28;21045;-70
2021/06/28 15:13:57;;;;;;;3.53;3.22;;;;;;;;;;10313549;28;20219;-69
2021/06/28 15:18:55;;;;;;;3.63;3.33;;;;;;;;;;10322150;28;20621;-70
2021/06/28 15:23:52;;;;;;;3.10;2.90;;;;;;;;;;10310757;28;20036;-70
2021/06/28 15:28:50;;;;;;;3.20;3.00;;;;;;;;;;10333419;28;20061;-69
2021/06/28 15:33:47;;;;;;;3.00;2.80;;;;;;;;;;10315765;28;20047;-69
2021/06/28 15:38:45;;;;;;;3.10;2.90;;;;;;;;;;10305746;28;20495;-70
2021/06/28 15:43:42;;;;;;;3.93;2.90;;;;;;;;;;10319581;28;20281;-70
2021/06/28 15:48:39;;;;;;;3.05;2.85;;;;;;;;;;10321795;28;20128;-69
2021/06/28 15:53:37;;;;;;;3.00;2.80;;;;;;;;;;10312346;28;20034;-68
2021/06/28 15:58:34;;;;;;;2.90;2.70;;;;;;;;;;10319954;28;20037;-68
2021/06/28 16:03:32;;;;;;;3.03;2.83;;;;;;;;;;10318400;28;20053;-70
2021/06/28 16:08:30;;;;;;;3.10;2.90;;;;;;;;;;10311915;28;20533;-69
2021/06/28 16:13:28;;;;;;;3.38;3.08;;;;;;;;;;10329269;28;20370;-69
2021/06/28 16:18:26;;;;;;;3.45;3.17;;;;;;;;;;10299877;28;20037;-70
2021/06/28 16:23:23;;;;;;;3.27;3.07;;;;;;;;;;10312952;28;20037;-71
2021/06/28 16:28:21;;;;;;;3.30;3.00;;;;;;;;;;10320387;28;20457;-68
2021/06/28 16:33:18;;;;;;;3.05;2.85;;;;;;;;;;10311208;28;20030;-68
2021/06/28 16:38:16;;;;;;;3.40;3.10;;;;;;;;;;10314721;28;20045;-68
2021/06/28 16:43:13;;;;;;;3.22;2.92;;;;;;;;;;10297599;28;20039;-71
2021/06/28 16:48:11;;;;;;;3.60;3.30;;;;;;;;;;10311552;28;20037;-70
2021/06/28 16:53:08;;;;;;;3.93;3.20;;;;;;;;;;10294145;28;20604;-71
2021/06/28 16:58:10;;;;;;;3.47;3.17;;;;;;;;;;10291824;28;20021;-70
2021/06/28 17:03:08;;;;;;;3.47;3.17;;;;;;;;;;10294864;28;20509;-68
2021/06/28 17:08:05;;;;;;;2.90;2.70;;;;;;;;;;10302664;28;20044;-69
2021/06/28 17:13:03;;;;;;;3.00;2.80;;;;;;;;;;10312457;28;20040;-68
2021/06/28 17:18:00;;;;;;;3.13;2.88;;;;;;;;;;10315499;28;20513;-68
2021/06/28 17:22:58;;;;;;;2.90;2.70;;;;;;;;;;10309525;28;20037;-67
2021/06/28 17:27:57;;;;;;;5.17;3.10;;;;;;;;;;10306858;28;20801;-69
2021/06/28 17:32:55;;;;;;;3.13;2.92;;;;;;;;;;10310894;28;20291;-70
2021/06/28 17:37:52;;;;;;;4.23;3.27;;;;;;;;;;10315790;28;20048;-67
2021/06/28 17:42:50;;;;;;;3.80;2.90;;;;;;;;;;10299917;28;20353;-68
2021/06/28 17:47:48;;;;;;;3.35;3.05;;;;;;;;;;10318711;28;20033;-69
2021/06/28 17:52:45;;;;;;;3.70;3.40;;;;;;;;;;10298282;28;20040;-69
2021/06/28 17:57:43;;;;;;;2.95;2.75;;;;;;;;;;10303673;28;20163;-70
2021/06/28 18:02:41;;;;;;;3.95;3.33;;;;;;;;;;10316656;28;20541;-68
2021/06/28 18:07:39;;;;;;;3.15;2.90;;;;;;;;;;10300734;28;20041;-69
2021/06/28 18:12:36;;;;;;;4.50;3.40;;;;;;;;;;10307166;28;20041;-69
2021/06/28 18:17:34;;;;;;;3.43;3.13;;;;;;;;;;10308660;28;20037;-70
2021/06/28 18:22:31;;;;;;;4.70;3.88;;;;;;;;;;10310570;28;20291;-68
2021/06/28 18:27:29;;;;;;;5.17;3.90;;;;;;;;;;10317830;28;20041;-69
2021/06/28 18:32:26;;;;;;;3.83;3.42;;;;;;;;;;10328064;28;20048;-68
2021/06/28 18:37:24;;;;;;;3.92;3.55;;;;;;;;;;10320590;28;20041;-69
2021/06/28 18:42:21;;;;;;;3.30;3.10;;;;;;;;;;10310467;28;20218;-68
2021/06/28 18:47:19;;;;;;;4.17;3.40;;;;;;;;;;10318958;28;20043;-69
2021/06/28 18:52:16;;;;;;;3.50;3.20;;;;;;;;;;10307297;28;20281;-69
2021/06/28 18:57:14;;;;;;;3.50;3.20;;;;;;;;;;10318104;28;20029;-68
2021/06/28 19:02:13;;;;;;;3.85;3.42;;;;;;;;;;10310976;28;20036;-70
2021/06/28 19:07:12;;;;;;;3.53;3.22;;;;;;;;;;10310946;28;20043;-69
2021/06/28 19:12:09;;;;;;;3.30;3.00;;;;;;;;;;10315540;28;20386;-68
2021/06/28 19:17:07;;;;;;;4.50;3.35;;;;;;;;;;10316691;28;20128;-69
2021/06/28 19:22:04;;;;;;;3.47;2.93;;;;;;;;;;10315932;28;20049;-69
2021/06/28 19:27:02;;;;;;;3.72;3.42;;;;;;;;;;10315452;28;20045;-67
2021/06/28 19:31:59;;;;;;;4.45;3.88;;;;;;;;;;10316737;28;20064;-69
2021/06/28 19:36:57;;;;;;;4.20;3.80;;;;;;;;;;10318996;28;20047;-68
2021/06/28 19:41:54;;;;;;;6.60;3.83;;;;;;;;;;10305769;28;20087;-69
2021/06/28 19:46:52;;;;;;;9.53;3.93;;;;;;;;;;10314544;28;20550;-71
2021/06/28 19:51:49;;;;;;;9.47;5.10;;;;;;;;;;10315978;28;20483;-68
2021/06/28 19:56:47;;;;;;;8.43;4.10;;;;;;;;;;10317237;28;20530;-68
2021/06/28 20:01:44;;;;;;;18.13;10.40;;;;;;;;;;10309751;28;20029;-68
2021/06/28 20:06:41;;;;;;;11.70;6.70;;;;;;;;;;10310118;28;20064;-67
2021/06/28 20:11:39;;;;;;;6.90;4.80;;;;;;;;;;10311970;28;20167;-69
2021/06/28 20:16:36;;;;;;;5.47;4.13;;;;;;;;;;10314480;28;20040;-69
2021/06/28 20:21:34;;;;;;;7.43;4.37;;;;;;;;;;10310280;28;20033;-70
2021/06/28 20:26:31;;;;;;;6.90;4.60;;;;;;;;;;10312168;28;20365;-69
2021/06/28 20:31:29;;;;;;;4.40;4.00;;;;;;;;;;10317829;28;20288;-68
2021/06/28 20:36:27;;;;;;;5.63;3.95;;;;;;;;;;10308451;28;20433;-68
2021/06/28 20:41:24;;;;;;;7.90;4.43;;;;;;;;;;10321044;28;20029;-68
2021/06/28 20:46:21;;;;;;;4.70;4.23;;;;;;;;;;10319483;28;20202;-67
2021/06/28 20:51:19;;;;;;;5.93;4.20;;;;;;;;;;10311685;28;20538;-67
2021/06/28 20:56:16;;;;;;;4.67;4.23;;;;;;;;;;10294038;28;20037;-68
2021/06/28 21:01:14;;;;;;;4.30;3.88;;;;;;;;;;10303791;28;20288;-68
2021/06/28 21:06:11;;;;;;;4.13;3.63;;;;;;;;;;10295466;28;20033;-68
2021/06/28 21:11:09;;;;;;;4.10;3.70;;;;;;;;;;10307680;28;20381;-68
2021/06/28 21:16:07;;;;;;;4.28;3.88;;;;;;;;;;10317764;28;20060;-70
2021/06/28 21:21:04;;;;;;;3.87;3.57;;;;;;;;;;10313231;28;20037;-67
2021/06/28 21:26:01;;;;;;;3.80;3.50;;;;;;;;;;10300898;28;20436;-68
2021/06/28 21:30:59;;;;;;;4.80;4.40;;;;;;;;;;10309680;28;20450;-69
2021/06/28 21:35:57;;;;;;;3.63;3.33;;;;;;;;;;10301104;28;20041;-67
2021/06/28 21:40:57;;;;;;;5.20;3.90;;;;;;;;;;10318028;28;20637;-68
2021/06/28 21:45:54;;;;;;;3.97;3.63;;;;;;;;;;10302326;28;20033;-68
2021/06/28 21:50:52;;;;;;;4.30;3.87;;;;;;;;;;10293891;28;20037;-68
2021/06/28 21:55:49;;;;;;;4.20;3.85;;;;;;;;;;10313365;28;20368;-68
2021/06/28 22:00:47;;;;;;;4.90;4.07;;;;;;;;;;10316755;28;20550;-67
2021/06/28 22:05:44;;;;;;;4.37;3.97;;;;;;;;;;10317707;28;20495;-68
2021/06/28 22:10:42;;;;;;;4.00;3.67;;;;;;;;;;10305742;28;20459;-68
2021/06/28 22:15:39;;;;;;;6.67;4.20;;;;;;;;;;10311731;28;20052;-67
2021/06/28 22:20:38;;;;;;;4.45;4.05;;;;;;;;;;10311688;28;20264;-68
2021/06/28 22:25:35;;;;;;;4.57;3.90;;;;;;;;;;10323039;28;20132;-67
2021/06/28 22:30:33;;;;;;;4.18;3.78;;;;;;;;;;10318956;28;20128;-70
2021/06/28 22:35:31;;;;;;;4.85;4.35;;;;;;;;;;10306132;28;20140;-68
2021/06/28 22:40:28;;;;;;;4.25;3.83;;;;;;;;;;10303809;28;20065;-68
2021/06/28 22:45:26;;;;;;;5.10;4.60;;;;;;;;;;10314692;28;20132;-69
2021/06/28 22:50:23;;;;;;;4.43;4.03;;;;;;;;;;10319685;28;20267;-68
2021/06/28 22:55:21;;;;;;;5.68;4.20;;;;;;;;;;10305302;28;20039;-67
2021/06/28 23:00:18;;;;;;;4.70;4.23;;;;;;;;;;10332369;28;20045;-69
2021/06/28 23:05:16;;;;;;;4.38;4.07;;;;;;;;;;10310620;28;20037;-66
2021/06/28 23:10:13;;;;;;;4.40;4.10;;;;;;;;;;10327495;28;20030;-67
2021/06/28 23:15:11;;;;;;;4.57;4.28;;;;;;;;;;10332537;28;20033;-70
2021/06/28 23:20:09;;;;;;;4.45;4.05;;;;;;;;;;10329032;28;20045;-68
2021/06/28 23:25:06;;;;;;;4.35;3.95;;;;;;;;;;10301757;28;20036;-66
2021/06/28 23:30:04;;;;;;;4.63;4.22;;;;;;;;;;10307186;28;20225;-67
2021/06/28 23:35:02;;;;;;;4.88;4.47;;;;;;;;;;10309402;28;20529;-66
2021/06/28 23:39:59;;;;;;;4.20;3.90;;;;;;;;;;10320801;28;20739;-67
2021/06/28 23:44:57;;;;;;;4.90;4.30;;;;;;;;;;10316314;28;20117;-69
2021/06/28 23:49:54;;;;;;;4.57;4.18;;;;;;;;;;10308296;28;20033;-68
2021/06/28 23:54:51;;;;;;;4.65;4.25;;;;;;;;;;10326917;28;20033;-68
2021/06/28 23:59:49;;;;;;;5.00;4.60;;;;;;;;;;10311458;28;20115;-67
